Elmwood, NE

5:17 PM CDT on March 28, 2017 (GMT -0500)
274th & Fletcher Ave | | Change Station

Elev 1290 ft 40.87 °N, 96.33 °W | Updated 29 seconds ago

Overcast
Overcast
48.7 °F
Feels Like 49 °F
N
0.0
Wind Variable Wind from ENE
Gusts 0.0 mph

Today
High -- | Low -- °F
--% Chance of Precip.
Yesterday
High -- | Low -- °F
Precip. -- in
Pressure 30.06 in
Visibility 10.0 miles
Clouds Overcast 1900 ft
Windchill 49 °F
Dew Point 43 °F
Humidity 80%
Rainfall 0.00 in
Snow Depth Not available.
7:14 AM 7:46 PM
New Moon, 1% visible
METAR KPMV 282155Z AUTO 08008KT 10SM OVC019 10/04 A3006 RMK AO2 T00950038
Pressure 30.06 in
Visibility 10.0 miles
Clouds Overcast 1900 ft
Windchill 49 °F
Dew Point 43 °F
Humidity 80%
Rainfall 0.00 in
Snow Depth Not available.
7:14 AM 7:46 PM
New Moon, 1% visible
METAR KPMV 282155Z AUTO 08008KT 10SM OVC019 10/04 A3006 RMK AO2 T00950038

Get Severe Weather Alerts

Thanks for signing up!

Be on the lookout for a verification email in your inbox.

You'll start receiving the daily forecast at 8 AM.

×

10-Day Weather Forecast

Almanac

Astronomy

Mar. 28, 2017 Rise Set
Actual Time
Civil Twilight
Nautical Twilight
Astronomical Twilight
Moon
Length of Visible Light
Length of Day
Tomorrow will be .
, % of the Moon is Illuminated

Today's Extremes

State Highs State Lows

Community

WunderPhotos

Upload Photos

1,962,540 photos uploaded!

WunderBlog® & News

Nearby

Air Quality

  Air Quality AQ Index Pollutant
Not available.

Snow Depth

Station Depth Elevation

Earthquake Activity

City Distance Mag. Time & Date
Minimum magnitude displayed is 2.5.

Earthquake Activity

City Distance Mag. Time & Date
Minimum magnitude displayed is 2.5.

Coastal Water Temperatures

Place Temperature

Stations

Nearby Weather Stations

Station Location Temp. Windchill Dew Point Humidity Wind Precip. Elev Updated Type
                   

Watches & Warnings

There are currently no watches in effect.